If you wish to contribute or participate in the discussions about articles you are invited to join SKYbrary as a registered user

 Actions

Una-Comandatuba Airport

From SKYbrary Wiki

SBTC
Airport
ICAO: SBTC – IATA: UNA
Summary
Name Una-Comandatuba Airport
Region South America and Caribbean
Territory Brazil BR.gif
Location Una, Bahia
Serving Una
Elevation 6.096 m
20 ft6.096 m
Coordinates 15° 21' 11.99" S, 38° 59' 49.99" W
Runways
Designator Length Width Surface ROPS
2/20 1900 m6,233.596 ft
30 m98.425 ft
ASP /


METAR
Observation SBTC 202000Z 09003KT 9999 FEW025 28/22 Q1013
Station UNA HOTEL TRANSA
Date/Time 20 November 2019 20:00:00
Wind direction 90°
Wind speed 03 kts
Lowest cloud amount few clouds
Temperature 28°C
Dew point 22°C
Humidity 69%
QNH 1013 hPa
Weather condition n/a

Una-Comandatuba Airport, is the airport serving Una, Brazil and particularly the Transamérica Resort located in Comandatuba Island.

Climatology

Tropical rainforest climate (Köppen climate classification Af)

Maps

Terrain

Loading map...

Airport Layout

Loading map...


Accidents & Serious Incidents at or in vicinity of SBTC

None on SKYbrary